sensor_id;sensor_type;location;lat;lon;timestamp;P1;durP1;ratioP1;P2;durP2;ratioP2
54408;SDS011;40315;48.620;9.828;2022-07-29T00:01:51;5.97;;;5.38;;
54408;SDS011;40315;48.620;9.828;2022-07-29T00:04:18;6.13;;;5.65;;
54408;SDS011;40315;48.620;9.828;2022-07-29T00:06:46;7.65;;;6.88;;
54408;SDS011;40315;48.620;9.828;2022-07-29T00:09:13;6.70;;;5.97;;
54408;SDS011;40315;48.620;9.828;2022-07-29T00:11:40;9.93;;;6.90;;
54408;SDS011;40315;48.620;9.828;2022-07-29T00:14:08;7.03;;;6.05;;
54408;SDS011;40315;48.620;9.828;2022-07-29T00:16:36;7.35;;;6.00;;
54408;SDS011;40315;48.620;9.828;2022-07-29T00:19:04;6.57;;;5.88;;
54408;SDS011;40315;48.620;9.828;2022-07-29T00:21:31;6.72;;;5.82;;
54408;SDS011;40315;48.620;9.828;2022-07-29T00:23:58;6.07;;;5.45;;
54408;SDS011;40315;48.620;9.828;2022-07-29T00:26:25;7.20;;;5.35;;
54408;SDS011;40315;48.620;9.828;2022-07-29T00:28:57;8.32;;;6.35;;
54408;SDS011;40315;48.620;9.828;2022-07-29T00:31:24;6.30;;;5.32;;
54408;SDS011;40315;48.620;9.828;2022-07-29T00:33:54;6.55;;;5.43;;
54408;SDS011;40315;48.620;9.828;2022-07-29T00:36:21;6.53;;;5.70;;
54408;SDS011;40315;48.620;9.828;2022-07-29T00:38:48;6.05;;;5.45;;
54408;SDS011;40315;48.620;9.828;2022-07-29T00:41:16;6.30;;;5.70;;
54408;SDS011;40315;48.620;9.828;2022-07-29T00:43:44;6.63;;;5.93;;
54408;SDS011;40315;48.620;9.828;2022-07-29T00:46:11;6.20;;;5.20;;
54408;SDS011;40315;48.620;9.828;2022-07-29T00:48:38;5.28;;;4.78;;
54408;SDS011;40315;48.620;9.828;2022-07-29T00:51:07;5.60;;;5.10;;
54408;SDS011;40315;48.620;9.828;2022-07-29T00:53:35;6.18;;;5.57;;
54408;SDS011;40315;48.620;9.828;2022-07-29T00:56:03;6.85;;;5.63;;
54408;SDS011;40315;48.620;9.828;2022-07-29T00:58:30;6.70;;;5.97;;
54408;SDS011;40315;48.620;9.828;2022-07-29T01:03:40;6.50;;;5.88;;
54408;SDS011;40315;48.620;9.828;2022-07-29T01:06:08;6.18;;;5.25;;
54408;SDS011;40315;48.620;9.828;2022-07-29T01:08:36;6.32;;;5.05;;
54408;SDS011;40315;48.620;9.828;2022-07-29T01:11:03;6.32;;;5.72;;
54408;SDS011;40315;48.620;9.828;2022-07-29T01:13:30;5.68;;;5.18;;
54408;SDS011;40315;48.620;9.828;2022-07-29T01:15:59;5.55;;;5.05;;
54408;SDS011;40315;48.620;9.828;2022-07-29T01:18:30;5.72;;;4.65;;
54408;SDS011;40315;48.620;9.828;2022-07-29T01:21:19;6.15;;;5.55;;
54408;SDS011;40315;48.620;9.828;2022-07-29T01:23:59;5.53;;;5.03;;
54408;SDS011;40315;48.620;9.828;2022-07-29T01:26:47;6.85;;;5.05;;
54408;SDS011;40315;48.620;9.828;2022-07-29T01:29:22;5.53;;;4.70;;
54408;SDS011;40315;48.620;9.828;2022-07-29T01:31:54;5.43;;;4.93;;
54408;SDS011;40315;48.620;9.828;2022-07-29T01:34:29;5.50;;;5.03;;
54408;SDS011;40315;48.620;9.828;2022-07-29T01:37:03;6.55;;;5.20;;
54408;SDS011;40315;48.620;9.828;2022-07-29T02:38:01;9.13;;;7.40;;
54408;SDS011;40315;48.620;9.828;2022-07-29T02:40:46;8.25;;;7.50;;
54408;SDS011;40315;48.620;9.828;2022-07-29T02:43:16;9.70;;;8.18;;
54408;SDS011;40315;48.620;9.828;2022-07-29T02:45:45;8.40;;;7.60;;
54408;SDS011;40315;48.620;9.828;2022-07-29T02:48:21;7.80;;;7.10;;
54408;SDS011;40315;48.620;9.828;2022-07-29T02:51:05;8.40;;;7.55;;
54408;SDS011;40315;48.620;9.828;2022-07-29T02:53:41;9.38;;;7.70;;
54408;SDS011;40315;48.620;9.828;2022-07-29T02:56:17;8.88;;;7.95;;
54408;SDS011;40315;48.620;9.828;2022-07-29T02:58:52;9.23;;;8.10;;
54408;SDS011;40315;48.620;9.828;2022-07-29T03:01:23;8.20;;;7.40;;
54408;SDS011;40315;48.620;9.828;2022-07-29T03:03:56;10.30;;;7.85;;
54408;SDS011;40315;48.620;9.828;2022-07-29T03:06:26;10.15;;;9.15;;
54408;SDS011;40315;48.620;9.828;2022-07-29T03:08:56;8.32;;;7.35;;
54408;SDS011;40315;48.620;9.828;2022-07-29T03:11:27;9.43;;;8.38;;
54408;SDS011;40315;48.620;9.828;2022-07-29T03:13:57;11.27;;;8.32;;
54408;SDS011;40315;48.620;9.828;2022-07-29T03:16:26;9.73;;;8.80;;
54408;SDS011;40315;48.620;9.828;2022-07-29T03:18:56;9.23;;;8.27;;
54408;SDS011;40315;48.620;9.828;2022-07-29T03:21:24;11.02;;;9.10;;
54408;SDS011;40315;48.620;9.828;2022-07-29T03:23:51;11.00;;;8.20;;
54408;SDS011;40315;48.620;9.828;2022-07-29T03:26:19;7.68;;;6.88;;
54408;SDS011;40315;48.620;9.828;2022-07-29T03:28:47;8.50;;;7.22;;
54408;SDS011;40315;48.620;9.828;2022-07-29T03:31:14;9.30;;;8.40;;
54408;SDS011;40315;48.620;9.828;2022-07-29T03:33:41;8.65;;;7.72;;
54408;SDS011;40315;48.620;9.828;2022-07-29T03:36:08;8.88;;;8.07;;
54408;SDS011;40315;48.620;9.828;2022-07-29T03:38:35;11.45;;;8.52;;
54408;SDS011;40315;48.620;9.828;2022-07-29T03:41:05;9.50;;;8.50;;
54408;SDS011;40315;48.620;9.828;2022-07-29T03:43:37;8.43;;;7.63;;
54408;SDS011;40315;48.620;9.828;2022-07-29T03:46:07;8.50;;;7.57;;
54408;SDS011;40315;48.620;9.828;2022-07-29T03:48:36;8.75;;;7.93;;
54408;SDS011;40315;48.620;9.828;2022-07-29T03:51:10;8.48;;;7.68;;
54408;SDS011;40315;48.620;9.828;2022-07-29T03:53:37;8.77;;;7.88;;
54408;SDS011;40315;48.620;9.828;2022-07-29T03:56:04;9.05;;;7.93;;
54408;SDS011;40315;48.620;9.828;2022-07-29T03:58:34;9.65;;;8.18;;
54408;SDS011;40315;48.620;9.828;2022-07-29T04:01:02;8.38;;;7.30;;
54408;SDS011;40315;48.620;9.828;2022-07-29T04:03:30;7.72;;;6.95;;
54408;SDS011;40315;48.620;9.828;2022-07-29T04:05:57;7.30;;;6.47;;
54408;SDS011;40315;48.620;9.828;2022-07-29T04:08:28;7.68;;;6.55;;
54408;SDS011;40315;48.620;9.828;2022-07-29T04:10:55;6.78;;;6.07;;
54408;SDS011;40315;48.620;9.828;2022-07-29T04:13:22;7.53;;;6.18;;
54408;SDS011;40315;48.620;9.828;2022-07-29T04:15:49;7.97;;;5.95;;
54408;SDS011;40315;48.620;9.828;2022-07-29T04:18:18;6.85;;;5.65;;
54408;SDS011;40315;48.620;9.828;2022-07-29T04:20:45;7.57;;;5.47;;
54408;SDS011;40315;48.620;9.828;2022-07-29T04:23:12;7.22;;;6.03;;
54408;SDS011;40315;48.620;9.828;2022-07-29T04:25:42;6.65;;;5.00;;
54408;SDS011;40315;48.620;9.828;2022-07-29T04:28:09;6.50;;;5.90;;
54408;SDS011;40315;48.620;9.828;2022-07-29T04:30:37;7.82;;;5.93;;
54408;SDS011;40315;48.620;9.828;2022-07-29T04:33:05;7.30;;;6.47;;
54408;SDS011;40315;48.620;9.828;2022-07-29T04:35:35;5.47;;;4.97;;
54408;SDS011;40315;48.620;9.828;2022-07-29T04:38:05;5.15;;;4.57;;
54408;SDS011;40315;48.620;9.828;2022-07-29T04:40:33;4.93;;;4.50;;
54408;SDS011;40315;48.620;9.828;2022-07-29T04:43:00;4.70;;;4.28;;
54408;SDS011;40315;48.620;9.828;2022-07-29T04:45:27;5.38;;;3.78;;
54408;SDS011;40315;48.620;9.828;2022-07-29T04:47:55;5.55;;;4.30;;
54408;SDS011;40315;48.620;9.828;2022-07-29T04:50:22;4.38;;;3.80;;
54408;SDS011;40315;48.620;9.828;2022-07-29T04:52:50;5.18;;;4.07;;
54408;SDS011;40315;48.620;9.828;2022-07-29T04:55:18;4.45;;;4.03;;
54408;SDS011;40315;48.620;9.828;2022-07-29T04:57:44;4.63;;;4.20;;
54408;SDS011;40315;48.620;9.828;2022-07-29T05:00:14;5.32;;;4.00;;
54408;SDS011;40315;48.620;9.828;2022-07-29T05:02:41;4.25;;;3.85;;
54408;SDS011;40315;48.620;9.828;2022-07-29T05:05:08;6.25;;;3.72;;
54408;SDS011;40315;48.620;9.828;2022-07-29T05:07:35;4.97;;;4.20;;
54408;SDS011;40315;48.620;9.828;2022-07-29T05:10:04;5.50;;;4.38;;
54408;SDS011;40315;48.620;9.828;2022-07-29T05:12:31;4.10;;;3.70;;
54408;SDS011;40315;48.620;9.828;2022-07-29T05:14:59;4.88;;;4.30;;
54408;SDS011;40315;48.620;9.828;2022-07-29T05:17:26;4.13;;;3.83;;
54408;SDS011;40315;48.620;9.828;2022-07-29T05:19:53;4.65;;;3.70;;
54408;SDS011;40315;48.620;9.828;2022-07-29T05:22:20;5.00;;;3.80;;
54408;SDS011;40315;48.620;9.828;2022-07-29T05:24:50;4.95;;;3.70;;
54408;SDS011;40315;48.620;9.828;2022-07-29T05:27:19;4.32;;;3.67;;
54408;SDS011;40315;48.620;9.828;2022-07-29T05:29:46;3.47;;;3.17;;
54408;SDS011;40315;48.620;9.828;2022-07-29T05:32:13;4.90;;;3.40;;
54408;SDS011;40315;48.620;9.828;2022-07-29T05:34:43;3.33;;;3.08;;
54408;SDS011;40315;48.620;9.828;2022-07-29T05:37:10;3.35;;;3.15;;
54408;SDS011;40315;48.620;9.828;2022-07-29T05:39:38;4.28;;;3.60;;
54408;SDS011;40315;48.620;9.828;2022-07-29T05:42:07;4.28;;;3.40;;
54408;SDS011;40315;48.620;9.828;2022-07-29T05:44:37;5.90;;;3.92;;
54408;SDS011;40315;48.620;9.828;2022-07-29T05:47:04;3.92;;;3.60;;
54408;SDS011;40315;48.620;9.828;2022-07-29T05:49:32;4.70;;;3.60;;
54408;SDS011;40315;48.620;9.828;2022-07-29T05:51:59;4.22;;;3.75;;
54408;SDS011;40315;48.620;9.828;2022-07-29T05:54:26;7.10;;;4.07;;
54408;SDS011;40315;48.620;9.828;2022-07-29T05:56:53;5.68;;;3.70;;
54408;SDS011;40315;48.620;9.828;2022-07-29T05:59:20;4.95;;;3.63;;
54408;SDS011;40315;48.620;9.828;2022-07-29T06:01:51;3.15;;;2.85;;
54408;SDS011;40315;48.620;9.828;2022-07-29T06:04:20;5.10;;;2.60;;
54408;SDS011;40315;48.620;9.828;2022-07-29T06:06:47;4.63;;;2.28;;
54408;SDS011;40315;48.620;9.828;2022-07-29T06:09:15;4.63;;;2.40;;
54408;SDS011;40315;48.620;9.828;2022-07-29T06:11:42;3.05;;;2.28;;
54408;SDS011;40315;48.620;9.828;2022-07-29T06:14:10;4.32;;;2.40;;
54408;SDS011;40315;48.620;9.828;2022-07-29T06:16:37;4.47;;;2.20;;
54408;SDS011;40315;48.620;9.828;2022-07-29T06:19:05;3.60;;;1.90;;
54408;SDS011;40315;48.620;9.828;2022-07-29T06:21:32;3.22;;;1.92;;
54408;SDS011;40315;48.620;9.828;2022-07-29T06:24:02;4.28;;;2.20;;
54408;SDS011;40315;48.620;9.828;2022-07-29T06:26:29;3.88;;;2.17;;
54408;SDS011;40315;48.620;9.828;2022-07-29T06:28:59;3.67;;;1.98;;
54408;SDS011;40315;48.620;9.828;2022-07-29T06:31:26;3.05;;;2.00;;
54408;SDS011;40315;48.620;9.828;2022-07-29T06:33:55;2.80;;;2.03;;
54408;SDS011;40315;48.620;9.828;2022-07-29T06:36:24;2.90;;;2.25;;
54408;SDS011;40315;48.620;9.828;2022-07-29T06:38:51;4.03;;;2.28;;
54408;SDS011;40315;48.620;9.828;2022-07-29T06:41:18;5.40;;;2.70;;
54408;SDS011;40315;48.620;9.828;2022-07-29T06:43:45;2.60;;;2.20;;
54408;SDS011;40315;48.620;9.828;2022-07-29T06:46:13;3.80;;;2.25;;
54408;SDS011;40315;48.620;9.828;2022-07-29T06:48:43;4.18;;;2.20;;
54408;SDS011;40315;48.620;9.828;2022-07-29T06:51:11;2.78;;;2.10;;
54408;SDS011;40315;48.620;9.828;2022-07-29T06:53:39;4.57;;;2.35;;
54408;SDS011;40315;48.620;9.828;2022-07-29T06:56:07;5.22;;;2.40;;
54408;SDS011;40315;48.620;9.828;2022-07-29T06:58:34;4.05;;;2.08;;
54408;SDS011;40315;48.620;9.828;2022-07-29T07:01:03;3.40;;;2.20;;
54408;SDS011;40315;48.620;9.828;2022-07-29T07:03:30;7.95;;;2.67;;
54408;SDS011;40315;48.620;9.828;2022-07-29T07:06:00;4.40;;;2.47;;
54408;SDS011;40315;48.620;9.828;2022-07-29T07:08:27;3.97;;;1.92;;
54408;SDS011;40315;48.620;9.828;2022-07-29T07:10:55;4.05;;;2.42;;
54408;SDS011;40315;48.620;9.828;2022-07-29T07:13:22;7.18;;;2.15;;
54408;SDS011;40315;48.620;9.828;2022-07-29T07:15:50;3.20;;;2.25;;
54408;SDS011;40315;48.620;9.828;2022-07-29T07:18:17;3.70;;;2.28;;
54408;SDS011;40315;48.620;9.828;2022-07-29T07:20:45;3.88;;;2.10;;
54408;SDS011;40315;48.620;9.828;2022-07-29T07:23:15;2.75;;;2.30;;
54408;SDS011;40315;48.620;9.828;2022-07-29T07:25:42;4.75;;;2.47;;
54408;SDS011;40315;48.620;9.828;2022-07-29T07:28:11;2.78;;;2.13;;
54408;SDS011;40315;48.620;9.828;2022-07-29T07:30:39;2.50;;;2.10;;
54408;SDS011;40315;48.620;9.828;2022-07-29T07:33:08;2.67;;;1.70;;
54408;SDS011;40315;48.620;9.828;2022-07-29T07:35:38;2.28;;;2.08;;
54408;SDS011;40315;48.620;9.828;2022-07-29T07:38:08;3.47;;;2.22;;
54408;SDS011;40315;48.620;9.828;2022-07-29T07:40:35;3.28;;;2.10;;
54408;SDS011;40315;48.620;9.828;2022-07-29T07:43:02;5.72;;;2.55;;
54408;SDS011;40315;48.620;9.828;2022-07-29T07:45:30;2.90;;;2.25;;
54408;SDS011;40315;48.620;9.828;2022-07-29T07:48:01;4.05;;;2.58;;
54408;SDS011;40315;48.620;9.828;2022-07-29T07:50:28;4.30;;;2.53;;
54408;SDS011;40315;48.620;9.828;2022-07-29T07:52:55;6.20;;;3.10;;
54408;SDS011;40315;48.620;9.828;2022-07-29T07:55:26;4.53;;;2.80;;
54408;SDS011;40315;48.620;9.828;2022-07-29T07:57:53;4.85;;;3.50;;
54408;SDS011;40315;48.620;9.828;2022-07-29T08:00:22;8.45;;;3.95;;
54408;SDS011;40315;48.620;9.828;2022-07-29T08:02:51;6.10;;;3.33;;
54408;SDS011;40315;48.620;9.828;2022-07-29T08:05:18;9.68;;;4.10;;
54408;SDS011;40315;48.620;9.828;2022-07-29T08:07:45;4.75;;;4.28;;
54408;SDS011;40315;48.620;9.828;2022-07-29T08:10:13;7.30;;;4.07;;
54408;SDS011;40315;48.620;9.828;2022-07-29T08:13:03;10.88;;;4.50;;
54408;SDS011;40315;48.620;9.828;2022-07-29T08:15:30;7.63;;;4.15;;
54408;SDS011;40315;48.620;9.828;2022-07-29T08:17:59;5.03;;;4.00;;
54408;SDS011;40315;48.620;9.828;2022-07-29T08:20:26;5.30;;;4.10;;
54408;SDS011;40315;48.620;9.828;2022-07-29T08:22:53;5.00;;;3.95;;
54408;SDS011;40315;48.620;9.828;2022-07-29T08:25:20;5.60;;;3.97;;
54408;SDS011;40315;48.620;9.828;2022-07-29T08:27:50;6.47;;;3.97;;
54408;SDS011;40315;48.620;9.828;2022-07-29T08:30:17;5.70;;;3.97;;
54408;SDS011;40315;48.620;9.828;2022-07-29T08:32:47;4.60;;;3.63;;
54408;SDS011;40315;48.620;9.828;2022-07-29T08:35:17;5.07;;;3.60;;
54408;SDS011;40315;48.620;9.828;2022-07-29T08:37:44;6.13;;;4.28;;
54408;SDS011;40315;48.620;9.828;2022-07-29T08:40:11;6.65;;;4.38;;
54408;SDS011;40315;48.620;9.828;2022-07-29T08:42:39;7.40;;;3.88;;
54408;SDS011;40315;48.620;9.828;2022-07-29T08:45:06;5.07;;;4.10;;
54408;SDS011;40315;48.620;9.828;2022-07-29T08:47:34;4.30;;;3.47;;
54408;SDS011;40315;48.620;9.828;2022-07-29T08:50:07;4.80;;;3.42;;
54408;SDS011;40315;48.620;9.828;2022-07-29T08:52:37;5.78;;;4.25;;
54408;SDS011;40315;48.620;9.828;2022-07-29T08:55:08;4.47;;;3.50;;
54408;SDS011;40315;48.620;9.828;2022-07-29T08:57:37;8.43;;;4.13;;
54408;SDS011;40315;48.620;9.828;2022-07-29T09:00:07;6.28;;;4.20;;
54408;SDS011;40315;48.620;9.828;2022-07-29T09:02:39;4.47;;;3.92;;
54408;SDS011;40315;48.620;9.828;2022-07-29T09:05:07;5.50;;;4.07;;
54408;SDS011;40315;48.620;9.828;2022-07-29T09:07:34;4.65;;;3.90;;
54408;SDS011;40315;48.620;9.828;2022-07-29T09:10:05;6.90;;;4.00;;
54408;SDS011;40315;48.620;9.828;2022-07-29T09:12:33;5.10;;;3.60;;
54408;SDS011;40315;48.620;9.828;2022-07-29T09:15:00;4.38;;;3.85;;
54408;SDS011;40315;48.620;9.828;2022-07-29T09:20:17;5.03;;;3.88;;
54408;SDS011;40315;48.620;9.828;2022-07-29T09:22:48;4.63;;;3.53;;
54408;SDS011;40315;48.620;9.828;2022-07-29T09:25:31;6.55;;;3.80;;
54408;SDS011;40315;48.620;9.828;2022-07-29T09:28:05;5.25;;;3.80;;
54408;SDS011;40315;48.620;9.828;2022-07-29T09:30:33;5.03;;;3.40;;
54408;SDS011;40315;48.620;9.828;2022-07-29T09:33:03;4.30;;;3.53;;
54408;SDS011;40315;48.620;9.828;2022-07-29T09:35:31;3.03;;;2.83;;
54408;SDS011;40315;48.620;9.828;2022-07-29T09:38:10;4.90;;;3.10;;
54408;SDS011;40315;48.620;9.828;2022-07-29T09:40:38;4.28;;;3.17;;
54408;SDS011;40315;48.620;9.828;2022-07-29T09:43:12;3.83;;;2.90;;
54408;SDS011;40315;48.620;9.828;2022-07-29T09:45:39;4.43;;;3.10;;
54408;SDS011;40315;48.620;9.828;2022-07-29T09:48:14;6.65;;;3.35;;
54408;SDS011;40315;48.620;9.828;2022-07-29T09:50:43;4.63;;;3.28;;
54408;SDS011;40315;48.620;9.828;2022-07-29T09:53:13;5.00;;;3.60;;
54408;SDS011;40315;48.620;9.828;2022-07-29T09:55:57;3.65;;;3.35;;
54408;SDS011;40315;48.620;9.828;2022-07-29T09:58:24;4.70;;;3.60;;
54408;SDS011;40315;48.620;9.828;2022-07-29T10:00:52;5.55;;;3.30;;
54408;SDS011;40315;48.620;9.828;2022-07-29T10:03:20;3.65;;;3.35;;
54408;SDS011;40315;48.620;9.828;2022-07-29T10:06:03;4.25;;;3.85;;
54408;SDS011;40315;48.620;9.828;2022-07-29T10:08:36;3.75;;;3.45;;
54408;SDS011;40315;48.620;9.828;2022-07-29T10:11:09;6.10;;;4.50;;
54408;SDS011;40315;48.620;9.828;2022-07-29T10:13:37;4.53;;;4.00;;
54408;SDS011;40315;48.620;9.828;2022-07-29T10:16:05;5.55;;;3.95;;
54408;SDS011;40315;48.620;9.828;2022-07-29T10:18:35;5.28;;;3.70;;
54408;SDS011;40315;48.620;9.828;2022-07-29T10:21:05;5.63;;;3.70;;
54408;SDS011;40315;48.620;9.828;2022-07-29T10:23:32;4.20;;;3.67;;
54408;SDS011;40315;48.620;9.828;2022-07-29T10:26:02;7.15;;;4.10;;
54408;SDS011;40315;48.620;9.828;2022-07-29T10:28:29;7.35;;;4.13;;
54408;SDS011;40315;48.620;9.828;2022-07-29T10:30:58;4.40;;;4.00;;
54408;SDS011;40315;48.620;9.828;2022-07-29T10:33:38;6.22;;;4.60;;
54408;SDS011;40315;48.620;9.828;2022-07-29T10:36:20;4.97;;;4.10;;
54408;SDS011;40315;48.620;9.828;2022-07-29T10:39:05;4.53;;;4.13;;
54408;SDS011;40315;48.620;9.828;2022-07-29T10:41:47;5.72;;;4.05;;
54408;SDS011;40315;48.620;9.828;2022-07-29T10:44:25;5.88;;;4.55;;
54408;SDS011;40315;48.620;9.828;2022-07-29T10:46:53;4.93;;;4.43;;
54408;SDS011;40315;48.620;9.828;2022-07-29T10:49:22;4.63;;;4.10;;
54408;SDS011;40315;48.620;9.828;2022-07-29T10:51:58;6.30;;;4.40;;
54408;SDS011;40315;48.620;9.828;2022-07-29T10:54:39;5.55;;;4.38;;
54408;SDS011;40315;48.620;9.828;2022-07-29T10:57:16;4.15;;;3.85;;
54408;SDS011;40315;48.620;9.828;2022-07-29T11:02:52;4.53;;;4.10;;
54408;SDS011;40315;48.620;9.828;2022-07-29T11:05:23;4.60;;;4.20;;
54408;SDS011;40315;48.620;9.828;2022-07-29T11:10:49;4.85;;;4.45;;
54408;SDS011;40315;48.620;9.828;2022-07-29T11:16:15;5.18;;;4.45;;
54408;SDS011;40315;48.620;9.828;2022-07-29T11:21:48;5.03;;;4.57;;
54408;SDS011;40315;48.620;9.828;2022-07-29T11:24:19;4.95;;;4.40;;
54408;SDS011;40315;48.620;9.828;2022-07-29T11:29:47;5.05;;;4.32;;
54408;SDS011;40315;48.620;9.828;2022-07-29T11:32:16;6.50;;;4.32;;
54408;SDS011;40315;48.620;9.828;2022-07-29T11:34:45;4.68;;;4.15;;
54408;SDS011;40315;48.620;9.828;2022-07-29T11:37:17;5.22;;;4.28;;
54408;SDS011;40315;48.620;9.828;2022-07-29T11:39:47;5.13;;;4.60;;
54408;SDS011;40315;48.620;9.828;2022-07-29T11:42:50;4.90;;;4.50;;
54408;SDS011;40315;48.620;9.828;2022-07-29T11:45:23;5.05;;;4.40;;
54408;SDS011;40315;48.620;9.828;2022-07-29T11:47:57;5.22;;;4.50;;
54408;SDS011;40315;48.620;9.828;2022-07-29T11:50:30;5.20;;;4.70;;
54408;SDS011;40315;48.620;9.828;2022-07-29T11:53:02;5.25;;;4.68;;
54408;SDS011;40315;48.620;9.828;2022-07-29T11:55:35;4.95;;;4.55;;
54408;SDS011;40315;48.620;9.828;2022-07-29T11:58:04;5.68;;;4.43;;
54408;SDS011;40315;48.620;9.828;2022-07-29T12:00:35;5.10;;;4.57;;
54408;SDS011;40315;48.620;9.828;2022-07-29T12:03:04;5.22;;;4.72;;
54408;SDS011;40315;48.620;9.828;2022-07-29T12:05:35;5.93;;;4.68;;
54408;SDS011;40315;48.620;9.828;2022-07-29T12:10:41;5.00;;;4.60;;
54408;SDS011;40315;48.620;9.828;2022-07-29T12:13:09;6.68;;;4.45;;
54408;SDS011;40315;48.620;9.828;2022-07-29T12:15:38;4.90;;;4.40;;
54408;SDS011;40315;48.620;9.828;2022-07-29T12:18:09;7.40;;;3.88;;
54408;SDS011;40315;48.620;9.828;2022-07-29T12:20:37;4.57;;;3.20;;
54408;SDS011;40315;48.620;9.828;2022-07-29T12:23:06;2.88;;;2.67;;
54408;SDS011;40315;48.620;9.828;2022-07-29T12:25:39;2.72;;;2.53;;
54408;SDS011;40315;48.620;9.828;2022-07-29T12:28:08;3.50;;;3.20;;
54408;SDS011;40315;48.620;9.828;2022-07-29T12:30:42;3.78;;;3.38;;
54408;SDS011;40315;48.620;9.828;2022-07-29T12:33:15;4.18;;;3.45;;
54408;SDS011;40315;48.620;9.828;2022-07-29T12:35:45;4.05;;;3.20;;
54408;SDS011;40315;48.620;9.828;2022-07-29T12:38:16;3.05;;;2.75;;
54408;SDS011;40315;48.620;9.828;2022-07-29T12:40:44;3.22;;;2.92;;
54408;SDS011;40315;48.620;9.828;2022-07-29T12:43:13;3.60;;;3.28;;
54408;SDS011;40315;48.620;9.828;2022-07-29T12:45:43;4.15;;;3.78;;
54408;SDS011;40315;48.620;9.828;2022-07-29T12:48:13;3.78;;;3.38;;
54408;SDS011;40315;48.620;9.828;2022-07-29T12:50:52;4.60;;;3.38;;
54408;SDS011;40315;48.620;9.828;2022-07-29T12:53:21;4.50;;;3.65;;
54408;SDS011;40315;48.620;9.828;2022-07-29T12:55:49;4.53;;;4.13;;
54408;SDS011;40315;48.620;9.828;2022-07-29T12:58:27;4.88;;;4.00;;
54408;SDS011;40315;48.620;9.828;2022-07-29T13:03:47;4.90;;;4.40;;
54408;SDS011;40315;48.620;9.828;2022-07-29T13:06:35;5.38;;;4.43;;
54408;SDS011;40315;48.620;9.828;2022-07-29T13:09:05;5.20;;;4.70;;
54408;SDS011;40315;48.620;9.828;2022-07-29T13:11:34;6.93;;;5.05;;
54408;SDS011;40315;48.620;9.828;2022-07-29T13:14:06;5.80;;;4.13;;
54408;SDS011;40315;48.620;9.828;2022-07-29T13:19:33;5.75;;;5.15;;
54408;SDS011;40315;48.620;9.828;2022-07-29T13:22:08;5.40;;;4.90;;
54408;SDS011;40315;48.620;9.828;2022-07-29T13:24:45;6.78;;;5.03;;
54408;SDS011;40315;48.620;9.828;2022-07-29T13:27:14;6.72;;;5.43;;
54408;SDS011;40315;48.620;9.828;2022-07-29T13:29:41;6.65;;;5.28;;
54408;SDS011;40315;48.620;9.828;2022-07-29T13:32:09;6.32;;;5.47;;
54408;SDS011;40315;48.620;9.828;2022-07-29T13:34:38;5.32;;;4.82;;
54408;SDS011;40315;48.620;9.828;2022-07-29T13:37:07;5.65;;;5.05;;
54408;SDS011;40315;48.620;9.828;2022-07-29T13:39:36;5.93;;;5.00;;
54408;SDS011;40315;48.620;9.828;2022-07-29T13:42:06;6.40;;;5.43;;
54408;SDS011;40315;48.620;9.828;2022-07-29T13:44:33;7.15;;;5.88;;
54408;SDS011;40315;48.620;9.828;2022-07-29T13:47:00;6.07;;;5.57;;
54408;SDS011;40315;48.620;9.828;2022-07-29T13:49:31;6.70;;;5.53;;
54408;SDS011;40315;48.620;9.828;2022-07-29T13:51:58;5.93;;;5.28;;
54408;SDS011;40315;48.620;9.828;2022-07-29T13:54:25;6.85;;;6.05;;
54408;SDS011;40315;48.620;9.828;2022-07-29T13:56:52;5.70;;;5.07;;
54408;SDS011;40315;48.620;9.828;2022-07-29T13:59:19;6.90;;;5.95;;
54408;SDS011;40315;48.620;9.828;2022-07-29T14:01:46;6.65;;;5.75;;
54408;SDS011;40315;48.620;9.828;2022-07-29T14:04:13;5.35;;;4.85;;
54408;SDS011;40315;48.620;9.828;2022-07-29T14:06:42;9.38;;;5.45;;
54408;SDS011;40315;48.620;9.828;2022-07-29T14:09:10;5.43;;;4.93;;
54408;SDS011;40315;48.620;9.828;2022-07-29T14:11:38;6.28;;;5.10;;
54408;SDS011;40315;48.620;9.828;2022-07-29T14:14:05;6.25;;;5.28;;
54408;SDS011;40315;48.620;9.828;2022-07-29T14:16:32;5.82;;;5.20;;
54408;SDS011;40315;48.620;9.828;2022-07-29T14:18:59;5.00;;;4.60;;
54408;SDS011;40315;48.620;9.828;2022-07-29T14:21:28;5.45;;;4.97;;
54408;SDS011;40315;48.620;9.828;2022-07-29T14:23:57;6.07;;;5.47;;
54408;SDS011;40315;48.620;9.828;2022-07-29T14:26:24;5.25;;;4.85;;
54408;SDS011;40315;48.620;9.828;2022-07-29T14:28:51;5.70;;;4.85;;
54408;SDS011;40315;48.620;9.828;2022-07-29T14:31:23;5.13;;;4.72;;
54408;SDS011;40315;48.620;9.828;2022-07-29T14:33:52;6.53;;;5.50;;
54408;SDS011;40315;48.620;9.828;2022-07-29T14:36:19;5.45;;;4.88;;
54408;SDS011;40315;48.620;9.828;2022-07-29T14:38:47;5.90;;;4.43;;
54408;SDS011;40315;48.620;9.828;2022-07-29T14:41:16;5.10;;;4.60;;
54408;SDS011;40315;48.620;9.828;2022-07-29T14:43:43;5.50;;;4.25;;
54408;SDS011;40315;48.620;9.828;2022-07-29T14:46:10;4.22;;;3.83;;
54408;SDS011;40315;48.620;9.828;2022-07-29T14:48:39;4.22;;;3.90;;
54408;SDS011;40315;48.620;9.828;2022-07-29T14:51:08;5.15;;;4.65;;
54408;SDS011;40315;48.620;9.828;2022-07-29T14:53:35;4.93;;;4.53;;
54408;SDS011;40315;48.620;9.828;2022-07-29T14:56:02;6.60;;;4.85;;
54408;SDS011;40315;48.620;9.828;2022-07-29T14:58:31;6.53;;;5.13;;
54408;SDS011;40315;48.620;9.828;2022-07-29T15:00:58;5.63;;;5.13;;
54408;SDS011;40315;48.620;9.828;2022-07-29T15:03:26;5.45;;;4.95;;
54408;SDS011;40315;48.620;9.828;2022-07-29T15:05:53;6.53;;;5.13;;
54408;SDS011;40315;48.620;9.828;2022-07-29T15:08:20;5.00;;;4.57;;
54408;SDS011;40315;48.620;9.828;2022-07-29T15:10:51;5.65;;;5.05;;
54408;SDS011;40315;48.620;9.828;2022-07-29T15:13:18;5.43;;;4.95;;
54408;SDS011;40315;48.620;9.828;2022-07-29T15:15:46;5.65;;;5.05;;
54408;SDS011;40315;48.620;9.828;2022-07-29T15:18:15;5.72;;;5.13;;
54408;SDS011;40315;48.620;9.828;2022-07-29T15:20:42;6.28;;;5.38;;
54408;SDS011;40315;48.620;9.828;2022-07-29T15:23:10;5.47;;;4.93;;
54408;SDS011;40315;48.620;9.828;2022-07-29T15:25:39;5.68;;;5.13;;
54408;SDS011;40315;48.620;9.828;2022-07-29T15:28:07;5.35;;;4.75;;
54408;SDS011;40315;48.620;9.828;2022-07-29T15:30:38;5.68;;;5.18;;
54408;SDS011;40315;48.620;9.828;2022-07-29T15:33:08;5.85;;;5.35;;
54408;SDS011;40315;48.620;9.828;2022-07-29T15:35:35;5.75;;;5.13;;
54408;SDS011;40315;48.620;9.828;2022-07-29T15:38:02;5.00;;;4.50;;
54408;SDS011;40315;48.620;9.828;2022-07-29T15:40:29;5.32;;;4.82;;
54408;SDS011;40315;48.620;9.828;2022-07-29T15:42:59;5.30;;;4.82;;
54408;SDS011;40315;48.620;9.828;2022-07-29T15:45:34;5.38;;;4.88;;
54408;SDS011;40315;48.620;9.828;2022-07-29T15:48:02;5.95;;;4.88;;
54408;SDS011;40315;48.620;9.828;2022-07-29T15:50:32;5.70;;;5.10;;
54408;SDS011;40315;48.620;9.828;2022-07-29T15:52:59;5.13;;;4.72;;
54408;SDS011;40315;48.620;9.828;2022-07-29T15:55:30;4.68;;;4.25;;
54408;SDS011;40315;48.620;9.828;2022-07-29T15:57:58;4.95;;;4.35;;
54408;SDS011;40315;48.620;9.828;2022-07-29T16:00:27;5.78;;;4.35;;
54408;SDS011;40315;48.620;9.828;2022-07-29T16:02:54;4.32;;;4.03;;
54408;SDS011;40315;48.620;9.828;2022-07-29T16:05:21;4.80;;;4.40;;
54408;SDS011;40315;48.620;9.828;2022-07-29T16:07:49;4.93;;;4.30;;
54408;SDS011;40315;48.620;9.828;2022-07-29T16:10:19;4.70;;;4.30;;
54408;SDS011;40315;48.620;9.828;2022-07-29T16:12:46;7.32;;;5.30;;
54408;SDS011;40315;48.620;9.828;2022-07-29T16:15:13;5.10;;;4.63;;
54408;SDS011;40315;48.620;9.828;2022-07-29T16:17:40;5.15;;;4.65;;
54408;SDS011;40315;48.620;9.828;2022-07-29T16:20:07;5.13;;;4.63;;
54408;SDS011;40315;48.620;9.828;2022-07-29T16:22:36;5.50;;;4.50;;
54408;SDS011;40315;48.620;9.828;2022-07-29T16:25:05;5.53;;;5.03;;
54408;SDS011;40315;48.620;9.828;2022-07-29T16:27:33;5.28;;;4.65;;
54408;SDS011;40315;48.620;9.828;2022-07-29T16:30:00;5.75;;;5.28;;